Terminal Aerodrome Forecast
Issued by NWS Louisville, KY

Home | Current Version | Previous Version | Text Only | Print | Product List | Glossary On
Versions: 1 2 3 4 5 6 7 8 9 10 11 12 13 14 15 16
000
FTUS43 KLMK 311400 AAA
TAFSDF
TAF AMD
KSDF 311413Z 3114/0118 26007KT P6SM OVC050
     FM311600 30010G25KT P6SM VCSH OVC030
     FM311800 31015G24KT 6SM -SHRA OVC030
      TEMPO 3118/3121 4SM -SHRA BKN025
     FM010000 32018G28KT 6SM BR VCSH OVC030
      TEMPO 0100/0104 3SM -RASN BR BKN020
     FM011100 33017KT P6SM BKN025=

USA.gov is the U.S. government's official web portal to all federal, state and local government web resources and services.